Time;durP1;ratioP1;P1;durP2;ratioP2;P2;SDS_P1;SDS_P2;PMS_P1;PMS_P2;Temp;Humidity;BMP_temperature;BMP_pressure;BME280_temperature;BME280_humidity;BME280_pressure;Samples;Min_cycle;Max_cycle;Signal;HPM_P1;HPM_P2
2022/03/27 00:00:44;;;;;;;4.60;4.15;;;;;;;7.48;57.91;99775.34;4109459;28;20215;-60
2022/03/27 00:02:46;;;;;;;8.43;5.30;;;;;;;7.43;57.64;99775.91;4106513;28;20235;-60
2022/03/27 00:04:48;;;;;;;6.07;5.22;;;;;;;7.36;57.52;99776.94;4108189;28;20309;-60
2022/03/27 00:06:50;;;;;;;5.93;5.35;;;;;;;7.31;57.85;99769.38;4090668;28;20274;-59
2022/03/27 00:08:52;;;;;;;8.90;6.00;;;;;;;7.31;57.89;99779.41;4110174;28;20326;-58
2022/03/27 00:13:14;;;;;;;5.70;5.20;;;;;;;7.30;58.16;99778.53;4092634;28;20238;-58
2022/03/27 00:15:16;;;;;;;5.80;5.30;;;;;;;7.26;58.53;99776.41;4091895;28;20994;-63
2022/03/27 00:17:18;;;;;;;6.20;5.65;;;;;;;7.26;58.56;99776.41;4110459;28;20246;-60
2022/03/27 00:19:20;;;;;;;9.75;5.35;;;;;;;7.22;58.52;99778.69;4093673;28;20218;-58
2022/03/27 00:21:22;;;;;;;5.10;4.63;;;;;;;7.24;58.35;99773.06;4109603;28;20260;-58
2022/03/27 00:23:24;;;;;;;7.30;5.90;;;;;;;7.22;58.50;99783.31;4110538;28;20305;-58
2022/03/27 00:25:26;;;;;;;6.82;4.97;;;;;;;7.17;58.04;99777.63;4092940;28;20208;-58
2022/03/27 00:27:28;;;;;;;5.55;5.03;;;;;;;7.10;58.87;99771.28;4087244;28;20269;-60
2022/03/27 00:29:30;;;;;;;5.22;4.75;;;;;;;7.10;58.26;99777.53;4102348;28;20226;-58
2022/03/27 00:31:35;;;;;;;5.22;4.78;;;;;;;7.13;58.42;99779.03;4101585;28;20256;-61
2022/03/27 00:33:40;;;;;;;5.80;5.15;;;;;;;7.09;58.67;99775.88;4077045;29;20223;-63
2022/03/27 00:35:41;;;;;;;5.45;4.95;;;;;;;7.08;58.10;99784.25;4088361;28;20319;-59
2022/03/27 00:37:43;;;;;;;5.18;4.78;;;;;;;7.05;58.46;99779.19;4088695;28;20207;-58
2022/03/27 00:39:45;;;;;;;5.97;5.25;;;;;;;7.12;58.37;99782.81;4087151;28;20204;-59
2022/03/27 00:41:47;;;;;;;5.25;4.75;;;;;;;7.07;58.21;99777.09;4071809;29;20264;-58
2022/03/27 00:43:49;;;;;;;5.80;5.30;;;;;;;7.02;58.91;99774.97;4088452;28;20266;-59
2022/03/27 00:45:51;;;;;;;5.00;4.60;;;;;;;7.03;58.49;99775.84;4087607;28;20211;-60
2022/03/27 00:47:54;;;;;;;4.60;4.20;;;;;;;7.02;58.50;99779.59;4102727;28;20219;-61
2022/03/27 00:49:56;;;;;;;5.13;4.30;;;;;;;6.98;59.05;99778.28;4106235;28;20314;-61
2022/03/27 00:51:58;;;;;;;4.40;4.00;;;;;;;6.94;58.93;99777.00;4104105;28;20226;-62
2022/03/27 00:54:00;;;;;;;5.82;5.28;;;;;;;6.88;59.65;99783.25;4084915;28;20235;-60
2022/03/27 00:56:02;;;;;;;5.20;4.55;;;;;;;6.89;59.36;99777.59;4092940;28;20211;-60
2022/03/27 00:58:04;;;;;;;7.45;4.60;;;;;;;6.89;59.48;99780.31;4103160;28;20293;-61
2022/03/27 01:00:10;;;;;;;5.43;4.32;;;;;;;6.90;59.49;99775.72;4102358;28;20294;-61
2022/03/27 01:02:12;;;;;;;5.97;5.38;;;;;;;6.87;59.14;99773.38;4089370;28;20231;-61
2022/03/27 01:04:14;;;;;;;5.55;5.03;;;;;;;6.86;59.21;99768.97;4103838;28;20211;-60
2022/03/27 01:06:32;;;;;;;4.07;3.65;;;;;;;6.86;59.22;99766.25;4091032;28;20697;-61
2022/03/27 01:10:54;;;;;;;6.15;5.55;;;;;;;6.84;59.64;99771.06;4091134;28;20250;-61
2022/03/27 01:12:56;;;;;;;4.57;4.18;;;;;;;6.79;59.71;99765.34;4085935;28;20207;-63
2022/03/27 01:14:59;;;;;;;5.07;4.70;;;;;;;6.79;59.71;99762.63;4087930;28;20218;-61
2022/03/27 01:17:20;;;;;;;8.75;5.68;;;;;;;6.73;60.22;99757.97;4105190;28;20290;-61
2022/03/27 01:19:22;;;;;;;5.88;5.28;;;;;;;6.72;60.03;99759.00;4104770;28;20211;-63
2022/03/27 01:21:24;;;;;;;7.95;6.18;;;;;;;6.67;59.87;99758.75;4070185;29;20789;-62
2022/03/27 01:23:26;;;;;;;5.95;5.38;;;;;;;6.67;60.43;99758.75;4089533;29;20208;-59
2022/03/27 01:25:28;;;;;;;4.63;4.22;;;;;;;6.67;59.92;99753.31;4088976;28;20303;-61
2022/03/27 01:27:30;;;;;;;6.53;4.47;;;;;;;6.66;60.71;99751.63;4087921;28;20211;-58
2022/03/27 01:29:32;;;;;;;6.22;4.97;;;;;;;6.69;60.48;99748.53;4105786;28;20326;-61
2022/03/27 01:31:34;;;;;;;5.72;4.75;;;;;;;6.68;60.60;99744.97;4090157;28;20273;-61
2022/03/27 01:33:36;;;;;;;5.45;4.97;;;;;;;6.68;61.02;99744.97;4087953;28;20223;-57
2022/03/27 01:35:38;;;;;;;4.95;4.40;;;;;;;6.76;60.42;99741.28;4086175;28;20580;-60
2022/03/27 01:37:39;;;;;;;4.40;4.00;;;;;;;6.75;60.44;99747.75;4104877;28;20206;-59
2022/03/27 01:39:41;;;;;;;6.03;4.97;;;;;;;6.81;60.64;99744.22;4094589;28;20207;-62
2022/03/27 01:41:44;;;;;;;4.28;3.78;;;;;;;6.86;60.79;99749.94;4088737;28;20266;-58
2022/03/27 01:43:45;;;;;;;4.75;4.28;;;;;;;6.81;60.73;99749.66;4108305;28;20205;-62
2022/03/27 01:45:47;;;;;;;4.32;4.00;;;;;;;6.79;60.70;99741.72;4107417;28;20241;-58
2022/03/27 01:47:49;;;;;;;5.15;4.75;;;;;;;6.79;60.16;99746.31;4106004;28;20223;-58
2022/03/27 01:49:50;;;;;;;5.38;4.88;;;;;;;6.73;60.50;99744.38;4089521;28;20390;-58
2022/03/27 01:51:52;;;;;;;4.93;4.43;;;;;;;6.63;60.76;99746.59;4107226;28;20392;-59
2022/03/27 01:53:55;;;;;;;4.22;3.80;;;;;;;6.63;60.91;99746.59;4091796;28;20246;-59
2022/03/27 01:55:56;;;;;;;4.28;3.88;;;;;;;6.64;60.64;99746.41;4103568;28;20305;-63
2022/03/27 01:57:58;;;;;;;5.95;5.45;;;;;;;6.62;60.85;99750.34;4103538;28;20215;-58
2022/03/27 02:00:00;;;;;;;4.63;4.22;;;;;;;6.60;60.43;99746.97;4105368;28;20239;-59
2022/03/27 02:02:02;;;;;;;4.50;4.10;;;;;;;6.56;60.78;99746.50;4102569;28;20277;-62
2022/03/27 02:04:05;;;;;;;5.03;4.60;;;;;;;6.49;60.83;99750.22;4105723;28;21120;-59
2022/03/27 02:06:06;;;;;;;5.68;5.05;;;;;;;6.48;61.26;99748.53;4084651;28;20231;-59
2022/03/27 02:08:09;;;;;;;5.03;4.53;;;;;;;6.44;60.96;99752.69;4070481;29;20241;-58
2022/03/27 02:10:30;;;;;;;4.85;4.45;;;;;;;6.40;60.76;99745.94;4092686;28;20238;-58
2022/03/27 02:12:35;;;;;;;4.32;3.92;;;;;;;6.36;60.96;99750.91;4106046;28;20234;-59
2022/03/27 02:14:36;;;;;;;5.10;4.70;;;;;;;6.35;61.16;99742.97;4091576;28;20216;-57
2022/03/27 02:16:39;;;;;;;4.90;4.50;;;;;;;6.34;61.16;99746.69;4091337;28;20206;-57
2022/03/27 02:18:42;;;;;;;4.00;3.65;;;;;;;6.33;61.62;99739.59;4107341;28;21847;-58
2022/03/27 02:20:44;;;;;;;7.00;4.25;;;;;;;6.29;61.82;99749.19;4091925;28;20209;-59
2022/03/27 02:22:46;;;;;;;5.32;4.85;;;;;;;6.30;61.59;99745.41;4072793;29;20295;-58
2022/03/27 02:24:48;;;;;;;33.40;5.15;;;;;;;6.29;61.45;99743.75;4076059;29;20207;-61
2022/03/27 02:26:50;;;;;;;4.47;4.13;;;;;;;6.29;61.86;99744.56;4108383;28;20234;-61
2022/03/27 02:28:51;;;;;;;5.40;4.90;;;;;;;6.25;61.76;99742.44;4105042;28;20384;-59
2022/03/27 02:30:53;;;;;;;3.60;3.33;;;;;;;6.24;61.64;99748.91;4106512;28;20290;-58
2022/03/27 02:32:56;;;;;;;6.32;4.93;;;;;;;6.21;61.65;99746.56;4091569;28;20338;-60
2022/03/27 02:34:57;;;;;;;6.38;5.82;;;;;;;6.18;62.03;99749.66;4104107;28;20211;-61
2022/03/27 02:36:59;;;;;;;5.45;4.95;;;;;;;6.17;61.90;99751.53;4089674;28;20207;-61
2022/03/27 02:39:01;;;;;;;5.68;3.65;;;;;;;6.14;61.64;99748.34;4089428;28;20219;-61
2022/03/27 02:41:04;;;;;;;4.75;3.78;;;;;;;6.14;61.86;99745.63;4106172;28;20794;-63
2022/03/27 02:43:06;;;;;;;4.95;4.47;;;;;;;6.10;61.73;99747.91;4101534;28;20788;-58
2022/03/27 02:45:09;;;;;;;4.47;4.07;;;;;;;6.05;62.21;99742.22;4087796;28;20698;-61
2022/03/27 02:47:10;;;;;;;3.75;3.45;;;;;;;6.06;61.81;99745.75;4088671;28;20204;-59
2022/03/27 02:49:12;;;;;;;4.75;4.30;;;;;;;6.04;62.45;99736.97;4108229;28;20234;-60
2022/03/27 02:51:14;;;;;;;3.50;3.20;;;;;;;6.02;62.08;99747.19;4091720;28;20808;-59
2022/03/27 02:53:16;;;;;;;5.15;4.65;;;;;;;5.99;61.85;99747.56;4087729;28;20306;-60
2022/03/27 02:55:18;;;;;;;4.72;4.22;;;;;;;5.94;61.95;99744.56;4091692;28;20207;-60
2022/03/27 02:57:19;;;;;;;4.30;3.97;;;;;;;5.89;62.73;99736.16;4090904;28;21274;-62
2022/03/27 02:59:22;;;;;;;4.32;3.78;;;;;;;5.86;62.13;99741.97;4070732;29;20291;-63
2022/03/27 03:01:23;;;;;;;5.80;5.30;;;;;;;5.85;62.41;99743.84;4086834;28;20231;-59
2022/03/27 03:03:25;;;;;;;6.60;4.15;;;;;;;5.90;62.42;99738.69;4071803;29;20306;-58
2022/03/27 03:05:28;;;;;;;6.40;5.80;;;;;;;5.88;62.08;99746.19;4088099;28;20290;-59
2022/03/27 03:07:30;;;;;;;11.35;4.72;;;;;;;5.86;62.40;99737.38;4093180;28;20536;-59
2022/03/27 03:09:32;;;;;;;5.03;3.58;;;;;;;5.86;62.61;99736.53;4109246;28;20278;-57
2022/03/27 03:11:34;;;;;;;5.90;5.32;;;;;;;5.87;62.74;99743.66;4104777;28;20974;-62
2022/03/27 03:13:35;;;;;;;6.18;4.25;;;;;;;5.84;62.62;99738.59;4090352;28;20238;-60
2022/03/27 03:15:39;;;;;;;5.05;4.65;;;;;;;5.81;62.61;99744.41;4092709;28;20222;-60
2022/03/27 03:17:42;;;;;;;4.82;4.43;;;;;;;5.79;63.04;99738.28;4086628;28;20207;-63
2022/03/27 03:19:43;;;;;;;6.00;4.55;;;;;;;5.74;62.59;99744.31;4087846;28;20309;-61
2022/03/27 03:21:45;;;;;;;3.47;3.17;;;;;;;5.73;62.74;99749.91;4091957;28;20254;-60
2022/03/27 03:23:47;;;;;;;4.72;4.32;;;;;;;5.70;62.50;99747.59;4102982;28;20244;-60
2022/03/27 03:25:49;;;;;;;5.95;5.45;;;;;;;5.67;62.42;99742.53;4103081;28;20258;-59
2022/03/27 03:28:09;;;;;;;3.55;3.35;;;;;;;5.61;62.42;99743.28;4101201;28;20203;-61
2022/03/27 03:30:12;;;;;;;4.43;4.03;;;;;;;5.58;62.33;99744.50;4090780;28;20253;-63
2022/03/27 03:32:13;;;;;;;4.75;4.32;;;;;;;5.55;62.64;99749.47;4108005;28;20230;-60
2022/03/27 03:34:16;;;;;;;4.55;4.25;;;;;;;5.53;62.16;99748.81;4086956;28;20220;-61
2022/03/27 03:36:18;;;;;;;4.80;4.47;;;;;;;5.53;62.45;99749.66;4107207;28;20894;-63
2022/03/27 03:38:20;;;;;;;4.65;4.25;;;;;;;5.54;62.47;99747.78;4088704;28;20631;-60
2022/03/27 03:40:23;;;;;;;4.60;3.70;;;;;;;5.52;62.47;99747.97;4107829;28;20716;-57
2022/03/27 03:42:24;;;;;;;4.85;4.45;;;;;;;5.48;62.37;99749.38;4104787;28;20226;-61
2022/03/27 03:44:26;;;;;;;3.75;3.45;;;;;;;5.45;62.42;99748.91;4073281;29;20662;-60
2022/03/27 03:46:28;;;;;;;4.75;4.25;;;;;;;5.43;62.59;99750.97;4103740;28;20211;-59
2022/03/27 03:48:31;;;;;;;5.75;4.15;;;;;;;5.38;62.73;99737.97;4103568;28;20214;-60
2022/03/27 03:50:35;;;;;;;4.15;3.58;;;;;;;5.34;62.74;99746.66;4088189;28;20715;-59
2022/03/27 03:52:36;;;;;;;5.80;4.82;;;;;;;5.33;62.76;99744.97;4102232;28;20718;-62
2022/03/27 03:54:38;;;;;;;5.40;4.28;;;;;;;5.24;62.85;99746.91;4105543;28;20736;-57
2022/03/27 03:56:40;;;;;;;4.85;4.45;;;;;;;5.19;62.69;99748.53;4106211;28;20246;-61
2022/03/27 03:58:41;;;;;;;4.22;3.80;;;;;;;5.17;62.89;99747.88;4087926;28;20642;-61
2022/03/27 04:00:46;;;;;;;5.38;4.93;;;;;;;5.10;62.75;99749.66;4068958;29;20231;-61
2022/03/27 04:02:47;;;;;;;4.45;4.03;;;;;;;5.10;62.90;99744.22;4103011;28;20219;-62
2022/03/27 04:04:49;;;;;;;6.68;5.63;;;;;;;5.05;63.08;99746.63;4105884;28;20301;-57
2022/03/27 04:06:51;;;;;;;4.43;4.03;;;;;;;5.04;63.14;99744.97;4086930;28;20696;-62
2022/03/27 04:08:53;;;;;;;4.68;4.18;;;;;;;4.99;63.18;99752.78;4091488;28;20338;-59
2022/03/27 04:10:54;;;;;;;4.32;3.92;;;;;;;4.97;63.23;99744.00;4091541;28;20254;-60
2022/03/27 04:12:56;;;;;;;5.72;3.97;;;;;;;4.96;63.60;99744.19;4103811;28;20672;-62
2022/03/27 04:14:58;;;;;;;5.65;5.05;;;;;;;4.92;63.38;99748.28;4104470;28;20203;-60
2022/03/27 04:17:00;;;;;;;4.82;4.38;;;;;;;4.90;63.13;99743.06;4102612;28;20238;-61
2022/03/27 04:19:02;;;;;;;5.97;5.45;;;;;;;4.86;63.66;99744.44;4082709;28;20208;-61
2022/03/27 04:21:04;;;;;;;5.78;5.25;;;;;;;4.88;63.41;99753.22;4072964;29;20204;-62
2022/03/27 04:23:05;;;;;;;6.32;5.68;;;;;;;4.86;63.13;99744.44;4102479;28;21012;-61
2022/03/27 04:25:08;;;;;;;4.30;3.90;;;;;;;4.84;63.52;99743.78;4103614;28;20210;-60
2022/03/27 04:27:09;;;;;;;5.22;4.25;;;;;;;4.86;63.42;99749.88;4106260;28;20304;-57
2022/03/27 04:29:11;;;;;;;5.40;4.45;;;;;;;4.84;63.47;99748.38;4108374;28;20298;-62
2022/03/27 04:31:13;;;;;;;5.00;4.53;;;;;;;4.85;63.75;99745.47;4090264;28;20242;-61
2022/03/27 04:33:16;;;;;;;4.85;4.10;;;;;;;4.83;63.52;99742.13;4086030;28;20229;-61
2022/03/27 04:35:17;;;;;;;10.00;5.78;;;;;;;4.88;63.84;99745.09;4071710;29;20299;-62
2022/03/27 04:37:19;;;;;;;4.80;4.25;;;;;;;4.86;63.82;99747.16;4104911;28;20281;-59
2022/03/27 04:39:22;;;;;;;4.88;4.57;;;;;;;4.81;63.91;99744.16;4092414;28;20297;-58
2022/03/27 04:41:24;;;;;;;4.38;4.00;;;;;;;4.79;63.77;99746.22;4106130;28;20755;-63
2022/03/27 04:43:28;;;;;;;4.15;3.67;;;;;;;4.75;63.66;99744.91;4106378;28;20246;-60
2022/03/27 04:45:30;;;;;;;5.93;5.45;;;;;;;4.71;63.93;99746.28;4091921;28;20253;-57
2022/03/27 04:47:31;;;;;;;4.70;4.40;;;;;;;4.70;63.74;99747.31;4095542;28;20234;-57
2022/03/27 04:49:33;;;;;;;4.70;4.30;;;;;;;4.68;64.13;99743.09;4092234;28;20237;-59
2022/03/27 04:51:35;;;;;;;5.30;4.80;;;;;;;4.67;63.83;99747.66;4093682;28;20285;-59
2022/03/27 04:53:37;;;;;;;5.38;4.88;;;;;;;4.66;64.10;99756.81;4108990;28;20227;-57
2022/03/27 04:55:41;;;;;;;4.38;3.40;;;;;;;4.65;63.79;99755.16;4078057;29;20235;-59
2022/03/27 04:57:43;;;;;;;5.55;5.05;;;;;;;4.62;64.07;99755.53;4105331;28;20705;-60
2022/03/27 04:59:45;;;;;;;4.85;4.45;;;;;;;4.60;63.74;99754.84;4105476;28;20215;-59
2022/03/27 05:01:47;;;;;;;4.82;4.35;;;;;;;4.56;64.00;99761.66;4109022;28;20313;-60
2022/03/27 05:03:48;;;;;;;4.22;3.83;;;;;;;4.50;64.11;99756.97;4107199;28;20245;-57
2022/03/27 05:05:50;;;;;;;4.95;4.53;;;;;;;4.48;64.17;99756.28;4110444;28;20215;-60
2022/03/27 05:07:53;;;;;;;4.95;4.55;;;;;;;4.45;64.21;99756.66;4110345;28;20269;-57
2022/03/27 05:09:55;;;;;;;4.35;3.80;;;;;;;4.45;64.16;99753.94;4109397;28;20578;-58
2022/03/27 05:11:57;;;;;;;6.22;5.63;;;;;;;4.43;64.25;99761.44;4090220;29;20281;-60
2022/03/27 05:13:58;;;;;;;5.75;5.35;;;;;;;4.41;64.60;99758.03;4099384;28;20226;-59
2022/03/27 05:16:00;;;;;;;4.20;3.80;;;;;;;4.41;63.88;99758.03;4091249;28;20654;-58
2022/03/27 05:18:02;;;;;;;4.72;4.32;;;;;;;4.32;63.94;99759.13;4106156;28;20207;-57
2022/03/27 05:20:04;;;;;;;4.38;4.07;;;;;;;4.30;64.31;99766.59;4107737;28;20868;-58
2022/03/27 05:22:07;;;;;;;6.07;5.57;;;;;;;4.26;64.86;99765.25;4110860;28;20266;-57
2022/03/27 05:24:09;;;;;;;5.68;4.00;;;;;;;4.26;65.10;99770.69;4079076;29;20208;-58
2022/03/27 05:26:10;;;;;;;5.22;4.25;;;;;;;4.29;64.23;99772.19;4092360;28;20214;-58
2022/03/27 05:28:16;;;;;;;5.45;4.95;;;;;;;4.34;64.52;99767.91;4112719;28;20266;-59
2022/03/27 05:30:19;;;;;;;6.50;4.70;;;;;;;4.36;64.61;99771.31;4097171;28;20333;-59
2022/03/27 05:32:21;;;;;;;5.15;4.18;;;;;;;4.32;64.54;99777.25;4093475;28;20298;-59
2022/03/27 05:34:22;;;;;;;3.90;3.28;;;;;;;4.34;64.95;99775.22;4111527;28;20221;-58
2022/03/27 05:36:25;;;;;;;4.22;3.85;;;;;;;4.38;65.06;99769.25;4111375;28;20206;-59
2022/03/27 05:38:26;;;;;;;4.22;3.92;;;;;;;4.37;64.76;99769.41;4090673;28;20211;-59
2022/03/27 05:40:28;;;;;;;4.60;4.18;;;;;;;4.37;65.33;99773.00;4083106;29;20240;-60
2022/03/27 05:42:29;;;;;;;5.82;5.07;;;;;;;4.38;65.68;99768.41;4095458;28;20274;-59
2022/03/27 05:44:31;;;;;;;5.55;5.05;;;;;;;4.37;65.93;99773.00;4100759;28;20708;-58
2022/03/27 05:46:33;;;;;;;6.10;4.60;;;;;;;4.37;65.70;99770.28;4097536;28;20238;-58
2022/03/27 05:48:35;;;;;;;9.65;6.10;;;;;;;4.43;65.94;99766.84;4093030;28;20263;-58
2022/03/27 05:50:36;;;;;;;6.90;5.65;;;;;;;4.44;65.77;99773.09;4110740;28;20357;-58
2022/03/27 05:52:39;;;;;;;4.68;4.32;;;;;;;4.43;66.05;99779.53;4093076;28;21005;-59
2022/03/27 05:54:40;;;;;;;5.40;4.05;;;;;;;4.45;66.13;99781.06;4093499;28;20235;-59
2022/03/27 05:56:42;;;;;;;6.00;4.45;;;;;;;4.46;66.41;99788.16;4092552;28;20218;-58
2022/03/27 05:58:44;;;;;;;5.68;4.97;;;;;;;4.49;66.44;99779.69;4109472;28;20812;-58
2022/03/27 06:00:45;;;;;;;4.88;4.43;;;;;;;4.55;66.33;99775.41;4094075;28;20207;-58
2022/03/27 06:02:51;;;;;;;5.10;4.70;;;;;;;4.67;67.35;99784.78;4093462;28;20215;-58
2022/03/27 06:04:53;;;;;;;5.85;5.15;;;;;;;4.76;67.29;99789.13;4109744;28;20214;-58
2022/03/27 06:06:55;;;;;;;6.38;4.32;;;;;;;4.92;66.94;99786.25;4106939;28;20249;-58
2022/03/27 06:08:59;;;;;;;4.10;3.70;;;;;;;5.13;67.10;99790.81;4089331;28;21194;-57
2022/03/27 06:11:01;;;;;;;5.03;4.63;;;;;;;5.27;67.04;99797.28;4105832;28;20700;-58
2022/03/27 06:13:03;;;;;;;5.90;5.00;;;;;;;5.45;66.88;99792.34;4090699;28;20339;-58
2022/03/27 06:15:07;;;;;;;4.15;3.72;;;;;;;5.53;66.22;99794.94;4094993;28;20243;-58
2022/03/27 06:17:08;;;;;;;4.30;3.88;;;;;;;5.80;66.18;99794.31;4093945;28;20195;-57
2022/03/27 06:19:10;;;;;;;8.27;4.53;;;;;;;5.88;65.59;99795.06;4107797;28;20619;-57
2022/03/27 06:21:12;;;;;;;5.68;5.22;;;;;;;6.41;65.66;99801.97;4076553;29;20613;-58
2022/03/27 06:23:19;;;;;;;5.13;4.57;;;;;;;6.46;65.59;99799.53;4090426;28;20290;-58
2022/03/27 06:25:24;;;;;;;4.90;4.50;;;;;;;6.71;65.42;99792.69;4108292;28;20235;-59
2022/03/27 06:27:26;;;;;;;10.77;5.22;;;;;;;7.20;64.42;99799.84;4109342;28;20238;-57
2022/03/27 06:29:27;;;;;;;5.40;4.95;;;;;;;7.29;63.06;99806.00;4109667;28;20241;-58
2022/03/27 06:31:29;;;;;;;4.90;4.50;;;;;;;7.31;63.31;99801.19;4092712;28;20673;-57
2022/03/27 06:33:31;;;;;;;4.88;4.47;;;;;;;7.33;62.96;99804.53;4109120;28;20649;-58
2022/03/27 06:35:33;;;;;;;5.60;5.10;;;;;;;7.72;63.14;99810.25;4108510;28;20214;-58
2022/03/27 06:37:35;;;;;;;4.82;4.43;;;;;;;8.82;61.73;99805.28;4092394;28;20370;-58
2022/03/27 06:39:37;;;;;;;6.72;6.10;;;;;;;9.28;60.00;99806.16;4109348;28;20222;-58
2022/03/27 06:41:39;;;;;;;5.97;5.38;;;;;;;9.98;59.39;99803.53;4106434;28;20230;-58
2022/03/27 06:43:43;;;;;;;7.05;4.95;;;;;;;10.21;58.53;99803.09;4109059;28;20293;-59
2022/03/27 06:45:45;;;;;;;4.80;4.32;;;;;;;11.01;56.58;99812.31;4110179;28;20222;-58
2022/03/27 06:47:49;;;;;;;5.45;4.95;;;;;;;11.00;55.66;99816.13;4109746;28;20266;-58
2022/03/27 06:49:51;;;;;;;5.32;3.58;;;;;;;10.67;54.45;99809.19;4108550;28;20290;-59
2022/03/27 06:51:52;;;;;;;4.82;4.32;;;;;;;10.82;55.73;99819.59;4091662;28;20258;-58
2022/03/27 06:53:54;;;;;;;5.63;4.53;;;;;;;10.43;55.59;99808.03;4108488;28;20405;-58
2022/03/27 06:55:56;;;;;;;4.30;3.95;;;;;;;11.09;55.03;99815.63;4108639;28;20655;-57
2022/03/27 06:57:58;;;;;;;4.47;4.07;;;;;;;12.05;52.30;99823.22;4107606;28;20214;-58
2022/03/27 07:04:40;;;;;;;6.03;4.88;;;;;;;11.77;52.60;99830.28;4093044;28;20297;-58
2022/03/27 07:06:43;;;;;;;5.57;5.07;;;;;;;11.29;53.63;99821.81;4092984;28;20203;-58
2022/03/27 07:08:44;;;;;;;3.83;3.53;;;;;;;12.18;52.34;99823.06;4077570;29;20291;-58
2022/03/27 07:10:48;;;;;;;3.65;3.35;;;;;;;13.42;49.50;99822.22;4093004;28;20298;-57
2022/03/27 07:12:50;;;;;;;5.00;4.50;;;;;;;13.76;49.88;99817.84;4092250;28;20694;-57
2022/03/27 07:14:52;;;;;;;4.93;4.43;;;;;;;14.00;49.11;99819.50;4109578;28;20273;-57
2022/03/27 07:17:17;;;;;;;5.68;5.07;;;;;;;12.97;51.50;99823.75;4105379;28;20295;-57
2022/03/27 07:19:19;;;;;;;5.43;4.15;;;;;;;13.78;49.67;99822.00;4091598;28;20231;-57
2022/03/27 07:21:21;;;;;;;3.63;3.35;;;;;;;14.59;47.30;99814.53;4111110;28;20265;-57
2022/03/27 07:23:23;;;;;;;3.63;3.10;;;;;;;14.54;47.75;99817.19;4093203;28;20218;-57
2022/03/27 07:25:26;;;;;;;5.90;5.35;;;;;;;15.31;46.36;99821.16;4089128;28;20203;-57
2022/03/27 07:27:28;;;;;;;4.25;3.88;;;;;;;15.28;46.60;99814.22;4091715;28;20309;-57
2022/03/27 07:29:30;;;;;;;4.53;4.20;;;;;;;14.50;47.86;99809.66;4106851;28;20245;-58
2022/03/27 07:31:33;;;;;;;3.47;3.25;;;;;;;14.21;49.84;99816.16;4091053;28;20726;-57
2022/03/27 07:33:35;;;;;;;5.43;5.00;;;;;;;14.18;49.10;99814.72;4074100;28;20690;-57
2022/03/27 07:35:38;;;;;;;5.55;4.53;;;;;;;14.84;48.31;99806.75;4108408;28;20214;-54
2022/03/27 07:37:39;;;;;;;4.70;4.28;;;;;;;14.95;47.88;99814.16;4093116;28;20716;-57
2022/03/27 07:39:41;;;;;;;5.55;4.95;;;;;;;15.14;47.58;99812.88;4107630;28;20211;-57
2022/03/27 07:41:43;;;;;;;4.93;4.07;;;;;;;15.07;47.62;99811.31;4075775;29;20643;-56
2022/03/27 07:43:44;;;;;;;4.75;4.35;;;;;;;15.17;47.15;99817.88;4095272;28;20241;-54
2022/03/27 07:45:46;;;;;;;4.35;3.95;;;;;;;15.28;47.06;99814.22;4092633;29;20243;-55
2022/03/27 07:47:50;;;;;;;5.93;3.88;;;;;;;15.63;46.81;99822.31;4111077;28;20203;-55
2022/03/27 07:49:52;;;;;;;4.45;3.75;;;;;;;16.92;44.08;99807.59;4109008;28;20254;-55
2022/03/27 07:51:54;;;;;;;4.05;3.67;;;;;;;17.50;43.21;99815.13;4094006;28;20266;-55
2022/03/27 07:53:55;;;;;;;4.68;4.20;;;;;;;16.95;44.31;99810.97;4108614;28;20242;-55
2022/03/27 07:55:57;;;;;;;6.13;4.57;;;;;;;16.78;43.75;99811.03;4091036;28;20266;-55
2022/03/27 07:57:59;;;;;;;3.85;3.53;;;;;;;17.26;43.19;99805.47;4088466;28;20203;-54
2022/03/27 08:00:02;;;;;;;5.38;4.78;;;;;;;17.75;42.72;99821.75;4107347;28;20221;-55
2022/03/27 08:02:04;;;;;;;3.85;3.30;;;;;;;17.63;42.50;99820.22;4070610;29;21077;-54
2022/03/27 08:04:06;;;;;;;4.35;4.03;;;;;;;17.69;42.63;99813.66;4088858;28;20211;-54
2022/03/27 08:06:08;;;;;;;5.10;4.13;;;;;;;17.73;42.92;99814.78;4104982;28;20313;-55
2022/03/27 08:08:10;;;;;;;4.47;4.07;;;;;;;17.54;43.84;99810.75;4089478;28;20203;-55
2022/03/27 08:10:14;;;;;;;4.30;3.78;;;;;;;17.89;43.25;99808.25;4091575;28;20289;-54
2022/03/27 08:12:17;;;;;;;4.90;4.40;;;;;;;18.23;42.27;99806.84;4091131;28;20266;-54
2022/03/27 08:14:19;;;;;;;4.55;4.03;;;;;;;17.78;43.32;99810.13;4091649;28;20215;-54
2022/03/27 08:16:20;;;;;;;5.22;4.57;;;;;;;17.54;44.74;99805.22;4105802;28;20665;-55
2022/03/27 08:18:22;;;;;;;4.05;3.65;;;;;;;17.87;43.62;99810.47;4091906;28;20219;-55
2022/03/27 08:20:25;;;;;;;4.65;4.10;;;;;;;18.79;41.98;99803.28;4090100;28;20270;-55
2022/03/27 08:22:27;;;;;;;3.83;3.17;;;;;;;17.85;43.31;99809.91;4088593;28;20273;-54
2022/03/27 08:24:29;;;;;;;4.72;4.32;;;;;;;18.58;42.72;99807.88;4071340;29;20211;-55
2022/03/27 08:28:51;;;;;;;3.90;3.60;;;;;;;18.32;43.28;99808.03;4093560;28;20211;-55
2022/03/27 08:30:53;;;;;;;3.78;3.33;;;;;;;19.37;41.29;99811.25;4089845;28;20215;-54
2022/03/27 08:32:55;;;;;;;4.85;3.80;;;;;;;18.40;42.95;99810.31;4108936;28;20203;-54
2022/03/27 08:34:56;;;;;;;4.60;4.18;;;;;;;16.75;46.52;99817.06;4108492;28;20254;-55
2022/03/27 08:37:02;;;;;;;8.68;3.55;;;;;;;18.22;43.90;99807.94;4089290;28;20721;-55
2022/03/27 08:39:04;;;;;;;4.13;3.72;;;;;;;18.00;44.21;99810.88;4103804;28;20257;-54
2022/03/27 08:41:05;;;;;;;3.78;3.47;;;;;;;18.39;43.59;99814.19;4105501;28;20639;-55
2022/03/27 08:43:15;;;;;;;3.88;3.50;;;;;;;18.53;43.44;99812.59;4106774;28;20276;-55
2022/03/27 08:45:17;;;;;;;5.82;4.80;;;;;;;18.15;44.02;99812.88;4090825;28;21206;-54
2022/03/27 08:47:20;;;;;;;4.30;3.83;;;;;;;18.13;44.01;99815.09;4091400;28;20208;-55
2022/03/27 08:49:35;;;;;;;5.40;4.90;;;;;;;19.02;42.91;99808.34;4093247;28;20215;-54
2022/03/27 08:51:47;;;;;;;3.65;3.10;;;;;;;20.09;40.93;99817.38;4088658;28;20238;-54
2022/03/27 08:54:11;;;;;;;3.28;2.97;;;;;;;19.93;41.11;99810.13;4086396;28;20204;-55
2022/03/27 08:56:15;;;;;;;4.97;4.55;;;;;;;19.74;41.29;99807.09;4088275;28;21157;-55
2022/03/27 08:58:19;;;;;;;4.57;3.25;;;;;;;19.56;41.78;99820.69;4106211;28;20203;-54
2022/03/27 09:00:29;;;;;;;4.50;3.55;;;;;;;19.63;41.95;99812.91;4090121;28;20216;-55
2022/03/27 09:02:31;;;;;;;4.47;4.07;;;;;;;19.92;41.50;99816.81;4071208;29;20247;-55
2022/03/27 09:04:36;;;;;;;3.38;2.58;;;;;;;18.73;41.65;99809.91;4103167;28;20755;-54
2022/03/27 09:06:37;;;;;;;4.10;3.22;;;;;;;18.86;41.82;99806.63;4090319;28;20848;-54
2022/03/27 09:08:39;;;;;;;3.60;3.25;;;;;;;19.40;41.36;99805.97;4076528;29;20204;-55
2022/03/27 09:10:41;;;;;;;4.28;3.88;;;;;;;17.68;43.76;99801.75;4106685;28;20227;-54
2022/03/27 09:12:44;;;;;;;5.38;3.58;;;;;;;18.89;43.11;99806.06;4075215;29;20732;-54
2022/03/27 09:14:50;;;;;;;3.75;3.33;;;;;;;19.36;42.22;99804.00;4092467;28;20215;-54
2022/03/27 09:17:06;;;;;;;3.50;3.20;;;;;;;19.65;41.93;99816.25;4106650;28;20214;-54
2022/03/27 09:19:11;;;;;;;5.05;4.18;;;;;;;20.41;40.68;99806.75;4089084;28;20258;-54
2022/03/27 09:21:14;;;;;;;5.95;4.80;;;;;;;20.13;40.59;99799.03;4089764;28;20258;-53
2022/03/27 09:23:25;;;;;;;6.22;4.00;;;;;;;19.74;41.15;99801.53;4079516;29;20216;-55
2022/03/27 09:25:28;;;;;;;5.10;4.53;;;;;;;18.23;43.53;99798.50;4092519;28;20211;-55
2022/03/27 09:27:34;;;;;;;4.13;3.72;;;;;;;19.47;42.50;99794.56;4110953;28;20281;-55
2022/03/27 09:29:57;;;;;;;3.83;2.95;;;;;;;19.14;42.02;99800.59;4094696;28;20203;-54
2022/03/27 09:31:59;;;;;;;4.38;3.20;;;;;;;18.46;41.38;99792.59;4096906;29;20231;-53
2022/03/27 09:34:02;;;;;;;4.72;4.13;;;;;;;19.21;41.57;99795.66;4112037;28;20223;-53
2022/03/27 09:36:07;;;;;;;7.40;2.72;;;;;;;19.63;40.93;99801.78;4095502;28;20367;-53
2022/03/27 09:38:19;;;;;;;3.55;2.90;;;;;;;18.53;41.17;99793.19;4093709;29;20215;-54
2022/03/27 09:40:20;;;;;;;3.67;3.08;;;;;;;18.66;41.69;99792.69;4111244;28;20202;-53
2022/03/27 09:42:24;;;;;;;3.83;3.10;;;;;;;19.34;40.90;99795.97;4092458;28;20235;-54
2022/03/27 09:44:34;;;;;;;3.92;2.90;;;;;;;19.28;40.54;99790.66;4093285;28;20270;-53
2022/03/27 09:46:55;;;;;;;3.72;2.92;;;;;;;19.94;39.60;99795.13;4107207;28;20215;-53
2022/03/27 09:48:57;;;;;;;2.90;2.42;;;;;;;20.01;39.84;99784.56;4110924;28;20250;-54
2022/03/27 09:51:00;;;;;;;6.72;3.03;;;;;;;20.72;39.21;99777.72;4093950;28;20246;-53
2022/03/27 09:53:26;;;;;;;6.93;4.35;;;;;;;20.60;38.75;99791.97;4111076;28;20290;-54
2022/03/27 09:55:28;;;;;;;5.97;3.13;;;;;;;20.26;39.74;99787.31;4110251;28;20260;-53